Previous Day
Next Day
Current Day
SHEF ID: STAK1 BLUE R NR STANLEY, KS
STATION TYPE:
PRECIP STAGE RIV-FLOW BAT-LOAD
in ft cfs volt
Ccp-Rev Ccp-Rev Ccp-Rev Ccp-Rev
(US/Central)
05/03 00:00 0.00 5.43 162 12.83
05/03 01:00 0.00 5.77 219 12.83
05/03 02:00 0.00 6.14 290 12.83
05/03 03:00 0.00 6.20 302 12.83
05/03 04:00 0.00 6.09 280 12.77
05/03 05:00 0.00 5.97 256 12.77
05/03 06:00 0.00 5.85 234 12.77
05/03 07:00 0.00 5.74 214 12.77
05/03 08:00 0.00 5.72 210 12.77
05/03 09:00 0.00 5.65 198 12.77
05/03 10:00 0.00 5.57 185 12.89
05/03 11:00 0.00 5.55 181 13.30
05/03 12:00 0.00 5.50 173 13.65
05/03 13:00 0.00 5.44 164 13.77
05/03 14:00 0.00 5.39 156 13.65
05/03 15:00 0.00 5.34 148 13.53
05/03 16:00 0.00 5.28 139 13.48
05/03 17:00 0.00 5.25 134 13.53
05/03 18:00 0.00 5.21 129 13.36
05/03 19:00 0.00 5.19 125 13.12
05/03 20:00 0.00 5.15 119 13.07
05/03 21:00 0.00 5.13 115 13.07
05/03 22:00 0.00 5.11 112 13.00
05/03 23:00 ---- ---- ---- ----